<?xml version="1.0" encoding="UTF-8" standalone="no" ?>
<gpx xmlns="http://www.topografix.com/GPX/1/1" xmlns:xsi="http://www.w3.org/2001/XMLSchema-instance" xsi:schemaLocation="http://www.topografix.com/GPX/1/1 http://www.topografix.com/GPX/1/1/gpx.xsd" version="1.1" creator="VisuGPX - https://www.visugpx.com">
  <metadata>
    <name>Edirne-Zagreb</name>
  </metadata>
  <trk>
    <name><![CDATA[Tour d'Europe: étape 686]]></name>
    <extensions>
      <line xmlns="http://www.topografix.com/GPX/gpx_style/0/2">
        <color>880000</color>
        <width>4</width>
      </line>
    </extensions>
    <trkseg>
      <trkpt lat="41.77565" lon="19.64264">
        <ele>45.968244</ele>
        <time>2022-05-15T08:00:20.882Z</time>
      </trkpt>
      <trkpt lat="41.77683" lon="19.64264">
        <ele>45.585753</ele>
        <time>2022-05-15T08:08:19.954Z</time>
      </trkpt>
      <trkpt lat="41.77921" lon="19.64273">
        <ele>44.29629</ele>
        <time>2022-05-15T08:09:22.957Z</time>
      </trkpt>
      <trkpt lat="41.78165" lon="19.64223">
        <ele>39.456595</ele>
        <time>2022-05-15T08:10:30.934Z</time>
      </trkpt>
      <trkpt lat="41.78406" lon="19.64136">
        <ele>39.434333</ele>
        <time>2022-05-15T08:16:42.914Z</time>
      </trkpt>
      <trkpt lat="41.78536" lon="19.64373">
        <ele>44.753651</ele>
        <time>2022-05-15T08:18:01.954Z</time>
      </trkpt>
      <trkpt lat="41.787" lon="19.64541">
        <ele>49.318507</ele>
        <time>2022-05-15T08:19:10.951Z</time>
      </trkpt>
      <trkpt lat="41.78923" lon="19.64652">
        <ele>46.200652</ele>
        <time>2022-05-15T08:20:18.988Z</time>
      </trkpt>
      <trkpt lat="41.78904" lon="19.6461">
        <ele>46.282693</ele>
        <time>2022-05-15T08:23:38.961Z</time>
      </trkpt>
      <trkpt lat="41.78685" lon="19.64492">
        <ele>50.346512</ele>
        <time>2022-05-15T08:25:04.988Z</time>
      </trkpt>
      <trkpt lat="41.78484" lon="19.64359">
        <ele>47.937365</ele>
        <time>2022-05-15T08:26:07.938Z</time>
      </trkpt>
      <trkpt lat="41.78275" lon="19.64371">
        <ele>49.341272</ele>
        <time>2022-05-15T08:27:19.950Z</time>
      </trkpt>
      <trkpt lat="41.78493" lon="19.64428">
        <ele>55.329881</ele>
        <time>2022-05-15T08:28:38.976Z</time>
      </trkpt>
      <trkpt lat="41.78668" lon="19.64587">
        <ele>61.722852</ele>
        <time>2022-05-15T08:30:07.960Z</time>
      </trkpt>
      <trkpt lat="41.78803" lon="19.64801">
        <ele>68.583983</ele>
        <time>2022-05-15T08:31:44.948Z</time>
      </trkpt>
      <trkpt lat="41.78871" lon="19.65088">
        <ele>70.871896</ele>
        <time>2022-05-15T08:32:49.969Z</time>
      </trkpt>
      <trkpt lat="41.79005" lon="19.65369">
        <ele>62.609876</ele>
        <time>2022-05-15T08:33:44.936Z</time>
      </trkpt>
      <trkpt lat="41.7918" lon="19.65571">
        <ele>59.441094</ele>
        <time>2022-05-15T08:34:45.936Z</time>
      </trkpt>
      <trkpt lat="41.7931" lon="19.65818">
        <ele>57.760277</ele>
        <time>2022-05-15T08:35:50.947Z</time>
      </trkpt>
      <trkpt lat="41.79528" lon="19.65906">
        <ele>51.113586</ele>
        <time>2022-05-15T08:36:38.949Z</time>
      </trkpt>
      <trkpt lat="41.79772" lon="19.65967">
        <ele>53.020279</ele>
        <time>2022-05-15T08:37:53.935Z</time>
      </trkpt>
      <trkpt lat="41.7998" lon="19.65913">
        <ele>56.715575</ele>
        <time>2022-05-15T08:39:12.948Z</time>
      </trkpt>
      <trkpt lat="41.80184" lon="19.65796">
        <ele>64.771614</ele>
        <time>2022-05-15T08:40:57.933Z</time>
      </trkpt>
      <trkpt lat="41.80381" lon="19.65747">
        <ele>71.338903</ele>
        <time>2022-05-15T08:42:31.921Z</time>
      </trkpt>
      <trkpt lat="41.80575" lon="19.65622">
        <ele>79.185095</ele>
        <time>2022-05-15T08:43:58.926Z</time>
      </trkpt>
      <trkpt lat="41.8079" lon="19.65607">
        <ele>76.701508</ele>
        <time>2022-05-15T08:45:20.918Z</time>
      </trkpt>
      <trkpt lat="41.80964" lon="19.65651">
        <ele>77.517997</ele>
        <time>2022-05-15T08:46:12.914Z</time>
      </trkpt>
      <trkpt lat="41.81177" lon="19.6552">
        <ele>74.483248</ele>
        <time>2022-05-15T08:47:00.918Z</time>
      </trkpt>
      <trkpt lat="41.81101" lon="19.65569">
        <ele>74.967669</ele>
        <time>2022-05-15T08:48:30.006Z</time>
      </trkpt>
      <trkpt lat="41.81045" lon="19.65348">
        <ele>59.999174</ele>
        <time>2022-05-15T08:49:31.919Z</time>
      </trkpt>
      <trkpt lat="41.81037" lon="19.65036">
        <ele>45.004457</ele>
        <time>2022-05-15T08:50:26.913Z</time>
      </trkpt>
      <trkpt lat="41.81015" lon="19.64693">
        <ele>43.258877</ele>
        <time>2022-05-15T08:51:32.926Z</time>
      </trkpt>
      <trkpt lat="41.81026" lon="19.64398">
        <ele>43.565719</ele>
        <time>2022-05-15T08:52:35.915Z</time>
      </trkpt>
      <trkpt lat="41.81293" lon="19.64354">
        <ele>39.959071</ele>
        <time>2022-05-15T08:53:40.942Z</time>
      </trkpt>
      <trkpt lat="41.81533" lon="19.64332">
        <ele>39.556748</ele>
        <time>2022-05-15T08:54:36.923Z</time>
      </trkpt>
      <trkpt lat="41.81775" lon="19.64369">
        <ele>39.578014</ele>
        <time>2022-05-15T08:55:35.931Z</time>
      </trkpt>
      <trkpt lat="41.81998" lon="19.6432">
        <ele>41.559263</ele>
        <time>2022-05-15T08:56:42.919Z</time>
      </trkpt>
      <trkpt lat="41.82145" lon="19.6424">
        <ele>45.43927</ele>
        <time>2022-05-15T08:57:57.920Z</time>
      </trkpt>
      <trkpt lat="41.82374" lon="19.64159">
        <ele>46.161182</ele>
        <time>2022-05-15T08:59:00.914Z</time>
      </trkpt>
      <trkpt lat="41.8259" lon="19.64027">
        <ele>43.581644</ele>
        <time>2022-05-15T08:59:51.929Z</time>
      </trkpt>
      <trkpt lat="41.82815" lon="19.63906">
        <ele>39.980762</ele>
        <time>2022-05-15T09:00:46.917Z</time>
      </trkpt>
      <trkpt lat="41.82961" lon="19.63861">
        <ele>42.977154</ele>
        <time>2022-05-15T09:01:53.946Z</time>
      </trkpt>
      <trkpt lat="41.83052" lon="19.63718">
        <ele>41.967682</ele>
        <time>2022-05-15T09:02:59.919Z</time>
      </trkpt>
      <trkpt lat="41.83246" lon="19.63558">
        <ele>44.859096</ele>
        <time>2022-05-15T09:04:02.918Z</time>
      </trkpt>
      <trkpt lat="41.83455" lon="19.63683">
        <ele>42.37358</ele>
        <time>2022-05-15T09:05:06.927Z</time>
      </trkpt>
      <trkpt lat="41.83673" lon="19.63517">
        <ele>40.995169</ele>
        <time>2022-05-15T09:06:08.922Z</time>
      </trkpt>
      <trkpt lat="41.83907" lon="19.63342">
        <ele>43.431838</ele>
        <time>2022-05-15T09:07:14.912Z</time>
      </trkpt>
      <trkpt lat="41.84063" lon="19.6311">
        <ele>44.162435</ele>
        <time>2022-05-15T09:08:17.924Z</time>
      </trkpt>
      <trkpt lat="41.83999" lon="19.62819">
        <ele>41.991263</ele>
        <time>2022-05-15T09:09:21.914Z</time>
      </trkpt>
      <trkpt lat="41.84204" lon="19.62659">
        <ele>41.139261</ele>
        <time>2022-05-15T09:10:22.921Z</time>
      </trkpt>
      <trkpt lat="41.84425" lon="19.62446">
        <ele>39.067384</ele>
        <time>2022-05-15T09:11:25.915Z</time>
      </trkpt>
      <trkpt lat="41.84626" lon="19.62232">
        <ele>41.318991</ele>
        <time>2022-05-15T09:12:26.910Z</time>
      </trkpt>
      <trkpt lat="41.84822" lon="19.61996">
        <ele>41.736927</ele>
        <time>2022-05-15T09:13:29.919Z</time>
      </trkpt>
      <trkpt lat="41.84986" lon="19.61759">
        <ele>42.21891</ele>
        <time>2022-05-15T09:14:27.914Z</time>
      </trkpt>
      <trkpt lat="41.85201" lon="19.61536">
        <ele>41.227399</ele>
        <time>2022-05-15T09:15:32.914Z</time>
      </trkpt>
      <trkpt lat="41.85405" lon="19.61382">
        <ele>43.374202</ele>
        <time>2022-05-15T09:16:28.914Z</time>
      </trkpt>
      <trkpt lat="41.85589" lon="19.61208">
        <ele>46.404622</ele>
        <time>2022-05-15T09:17:35.915Z</time>
      </trkpt>
      <trkpt lat="41.85796" lon="19.61063">
        <ele>48.530779</ele>
        <time>2022-05-15T09:18:36.912Z</time>
      </trkpt>
      <trkpt lat="41.8599" lon="19.60919">
        <ele>44.224344</ele>
        <time>2022-05-15T09:19:43.913Z</time>
      </trkpt>
      <trkpt lat="41.86183" lon="19.60748">
        <ele>45.411931</ele>
        <time>2022-05-15T09:20:37.916Z</time>
      </trkpt>
      <trkpt lat="41.86359" lon="19.60528">
        <ele>42.990578</ele>
        <time>2022-05-15T09:21:32.913Z</time>
      </trkpt>
      <trkpt lat="41.86543" lon="19.60285">
        <ele>42.410379</ele>
        <time>2022-05-15T09:22:33.911Z</time>
      </trkpt>
      <trkpt lat="41.86748" lon="19.60113">
        <ele>47.572438</ele>
        <time>2022-05-15T09:23:31.923Z</time>
      </trkpt>
      <trkpt lat="41.86958" lon="19.601">
        <ele>45.255277</ele>
        <time>2022-05-15T09:24:30.943Z</time>
      </trkpt>
      <trkpt lat="41.87179" lon="19.60184">
        <ele>45.087805</ele>
        <time>2022-05-15T09:25:25.944Z</time>
      </trkpt>
      <trkpt lat="41.87339" lon="19.59953">
        <ele>44.469444</ele>
        <time>2022-05-15T09:26:29.933Z</time>
      </trkpt>
      <trkpt lat="41.87496" lon="19.59715">
        <ele>44.759656</ele>
        <time>2022-05-15T09:27:32.947Z</time>
      </trkpt>
      <trkpt lat="41.87673" lon="19.59484">
        <ele>43.802638</ele>
        <time>2022-05-15T09:28:38.973Z</time>
      </trkpt>
      <trkpt lat="41.87787" lon="19.59223">
        <ele>45.156381</ele>
        <time>2022-05-15T09:29:41.945Z</time>
      </trkpt>
      <trkpt lat="41.87911" lon="19.58935">
        <ele>44.135184</ele>
        <time>2022-05-15T09:30:47.954Z</time>
      </trkpt>
      <trkpt lat="41.8804" lon="19.58673">
        <ele>42.759061</ele>
        <time>2022-05-15T09:31:50.927Z</time>
      </trkpt>
      <trkpt lat="41.88249" lon="19.58648">
        <ele>43.36354</ele>
        <time>2022-05-15T09:32:55.946Z</time>
      </trkpt>
      <trkpt lat="41.88346" lon="19.58374">
        <ele>41.098322</ele>
        <time>2022-05-15T09:33:57.976Z</time>
      </trkpt>
      <trkpt lat="41.88533" lon="19.58177">
        <ele>44.768316</ele>
        <time>2022-05-15T09:35:00.945Z</time>
      </trkpt>
      <trkpt lat="41.88736" lon="19.57979">
        <ele>42.045998</ele>
        <time>2022-05-15T09:36:06.951Z</time>
      </trkpt>
      <trkpt lat="41.8891" lon="19.5777">
        <ele>44.182331</ele>
        <time>2022-05-15T09:37:07.954Z</time>
      </trkpt>
      <trkpt lat="41.89091" lon="19.57551">
        <ele>43.578267</ele>
        <time>2022-05-15T09:38:19.945Z</time>
      </trkpt>
      <trkpt lat="41.8928" lon="19.57374">
        <ele>41.696269</ele>
        <time>2022-05-15T09:39:22.944Z</time>
      </trkpt>
      <trkpt lat="41.89505" lon="19.57249">
        <ele>42.356706</ele>
        <time>2022-05-15T09:40:28.944Z</time>
      </trkpt>
      <trkpt lat="41.89722" lon="19.57132">
        <ele>43.283901</ele>
        <time>2022-05-15T09:41:31.951Z</time>
      </trkpt>
      <trkpt lat="41.89952" lon="19.5699">
        <ele>45.029726</ele>
        <time>2022-05-15T09:42:37.951Z</time>
      </trkpt>
      <trkpt lat="41.90092" lon="19.56741">
        <ele>44.246614</ele>
        <time>2022-05-15T09:45:43.918Z</time>
      </trkpt>
      <trkpt lat="41.90199" lon="19.56528">
        <ele>45.937606</ele>
        <time>2022-05-15T09:46:50.911Z</time>
      </trkpt>
      <trkpt lat="41.90391" lon="19.56383">
        <ele>46.817611</ele>
        <time>2022-05-15T09:47:41.919Z</time>
      </trkpt>
      <trkpt lat="41.90581" lon="19.56164">
        <ele>48.315023</ele>
        <time>2022-05-15T09:48:40.008Z</time>
      </trkpt>
      <trkpt lat="41.9078" lon="19.56">
        <ele>50.396994</ele>
        <time>2022-05-15T09:49:31.941Z</time>
      </trkpt>
      <trkpt lat="41.91028" lon="19.5595">
        <ele>47.354209</ele>
        <time>2022-05-15T09:50:27.938Z</time>
      </trkpt>
      <trkpt lat="41.91262" lon="19.55988">
        <ele>45.416494</ele>
        <time>2022-05-15T09:51:21.984Z</time>
      </trkpt>
      <trkpt lat="41.91488" lon="19.56049">
        <ele>45.452728</ele>
        <time>2022-05-15T09:52:14.913Z</time>
      </trkpt>
      <trkpt lat="41.91703" lon="19.5625">
        <ele>45.867137</ele>
        <time>2022-05-15T09:53:14.913Z</time>
      </trkpt>
      <trkpt lat="41.91936" lon="19.56324">
        <ele>46.820077</ele>
        <time>2022-05-15T09:54:14.910Z</time>
      </trkpt>
      <trkpt lat="41.92202" lon="19.5635">
        <ele>47.360954</ele>
        <time>2022-05-15T09:55:20.922Z</time>
      </trkpt>
      <trkpt lat="41.92431" lon="19.5625">
        <ele>48.498849</ele>
        <time>2022-05-15T09:56:17.909Z</time>
      </trkpt>
      <trkpt lat="41.92574" lon="19.5599">
        <ele>45.402485</ele>
        <time>2022-05-15T09:57:22.925Z</time>
      </trkpt>
      <trkpt lat="41.92618" lon="19.55695">
        <ele>46.571804</ele>
        <time>2022-05-15T10:22:10.986Z</time>
      </trkpt>
      <trkpt lat="41.9268" lon="19.55384">
        <ele>47.218426</ele>
        <time>2022-05-15T10:23:16.954Z</time>
      </trkpt>
      <trkpt lat="41.92837" lon="19.55157">
        <ele>46.664413</ele>
        <time>2022-05-15T10:24:19.923Z</time>
      </trkpt>
      <trkpt lat="41.9305" lon="19.55001">
        <ele>50.126321</ele>
        <time>2022-05-15T10:25:25.945Z</time>
      </trkpt>
      <trkpt lat="41.9329" lon="19.54883">
        <ele>46.026345</ele>
        <time>2022-05-15T10:26:28.944Z</time>
      </trkpt>
      <trkpt lat="41.93501" lon="19.54704">
        <ele>44.916423</ele>
        <time>2022-05-15T10:27:28.963Z</time>
      </trkpt>
      <trkpt lat="41.93716" lon="19.54539">
        <ele>44.692054</ele>
        <time>2022-05-15T10:28:28.933Z</time>
      </trkpt>
      <trkpt lat="41.93865" lon="19.54319">
        <ele>47.385786</ele>
        <time>2022-05-15T10:29:34.941Z</time>
      </trkpt>
      <trkpt lat="41.9396" lon="19.54048">
        <ele>48.219679</ele>
        <time>2022-05-15T10:30:30.013Z</time>
      </trkpt>
      <trkpt lat="41.94022" lon="19.53772">
        <ele>48.502104</ele>
        <time>2022-05-15T10:31:17.930Z</time>
      </trkpt>
      <trkpt lat="41.94132" lon="19.53512">
        <ele>51.436753</ele>
        <time>2022-05-15T10:32:25.946Z</time>
      </trkpt>
      <trkpt lat="41.94368" lon="19.53456">
        <ele>48.853761</ele>
        <time>2022-05-15T10:33:22.943Z</time>
      </trkpt>
      <trkpt lat="41.94618" lon="19.53353">
        <ele>48.921268</ele>
        <time>2022-05-15T10:34:27.951Z</time>
      </trkpt>
      <trkpt lat="41.94848" lon="19.53176">
        <ele>49.306461</ele>
        <time>2022-05-15T10:35:30.948Z</time>
      </trkpt>
      <trkpt lat="41.9507" lon="19.53002">
        <ele>50.021443</ele>
        <time>2022-05-15T10:36:29.961Z</time>
      </trkpt>
      <trkpt lat="41.95289" lon="19.52883">
        <ele>51.246256</ele>
        <time>2022-05-15T10:37:31.943Z</time>
      </trkpt>
      <trkpt lat="41.95495" lon="19.53054">
        <ele>53.211016</ele>
        <time>2022-05-15T10:38:37.930Z</time>
      </trkpt>
      <trkpt lat="41.95678" lon="19.53238">
        <ele>54.927266</ele>
        <time>2022-05-15T10:39:42.927Z</time>
      </trkpt>
      <trkpt lat="41.95884" lon="19.53368">
        <ele>58.055201</ele>
        <time>2022-05-15T10:40:49.962Z</time>
      </trkpt>
      <trkpt lat="41.96021" lon="19.53594">
        <ele>58.851833</ele>
        <time>2022-05-15T10:41:34.924Z</time>
      </trkpt>
      <trkpt lat="41.96034" lon="19.5382">
        <ele>53.56619</ele>
        <time>2022-05-15T10:43:50.921Z</time>
      </trkpt>
      <trkpt lat="41.96161" lon="19.53677">
        <ele>57.496928</ele>
        <time>2022-05-15T10:45:04.936Z</time>
      </trkpt>
      <trkpt lat="41.96391" lon="19.53765">
        <ele>54.782126</ele>
        <time>2022-05-15T10:46:10.907Z</time>
      </trkpt>
      <trkpt lat="41.96638" lon="19.53862">
        <ele>55.65728</ele>
        <time>2022-05-15T10:47:13.914Z</time>
      </trkpt>
      <trkpt lat="41.96904" lon="19.53942">
        <ele>56.01846</ele>
        <time>2022-05-15T10:48:19.938Z</time>
      </trkpt>
      <trkpt lat="41.97147" lon="19.5404">
        <ele>56.584847</ele>
        <time>2022-05-15T10:49:20.906Z</time>
      </trkpt>
      <trkpt lat="41.97306" lon="19.54254">
        <ele>55.941646</ele>
        <time>2022-05-15T10:50:12.913Z</time>
      </trkpt>
      <trkpt lat="41.97523" lon="19.54379">
        <ele>54.049205</ele>
        <time>2022-05-15T10:51:06.922Z</time>
      </trkpt>
      <trkpt lat="41.97747" lon="19.54383">
        <ele>53.313173</ele>
        <time>2022-05-15T10:51:59.907Z</time>
      </trkpt>
      <trkpt lat="41.98011" lon="19.54362">
        <ele>51.995151</ele>
        <time>2022-05-15T10:53:02.915Z</time>
      </trkpt>
      <trkpt lat="41.98219" lon="19.54254">
        <ele>52.067011</ele>
        <time>2022-05-15T10:54:24.911Z</time>
      </trkpt>
      <trkpt lat="41.98435" lon="19.54082">
        <ele>52.51796</ele>
        <time>2022-05-15T10:55:29.911Z</time>
      </trkpt>
      <trkpt lat="41.98636" lon="19.53894">
        <ele>48.99079</ele>
        <time>2022-05-15T10:56:31.908Z</time>
      </trkpt>
      <trkpt lat="41.98811" lon="19.53663">
        <ele>50.809222</ele>
        <time>2022-05-15T10:57:37.905Z</time>
      </trkpt>
      <trkpt lat="41.99028" lon="19.53551">
        <ele>51.681478</ele>
        <time>2022-05-15T10:58:40.964Z</time>
      </trkpt>
      <trkpt lat="41.99219" lon="19.53397">
        <ele>53.028702</ele>
        <time>2022-05-15T10:59:54.973Z</time>
      </trkpt>
      <trkpt lat="41.99404" lon="19.53185">
        <ele>51.034117</ele>
        <time>2022-05-15T11:00:56.915Z</time>
      </trkpt>
      <trkpt lat="41.99555" lon="19.52943">
        <ele>50.923074</ele>
        <time>2022-05-15T11:01:48.931Z</time>
      </trkpt>
      <trkpt lat="41.99741" lon="19.52717">
        <ele>51.059299</ele>
        <time>2022-05-15T11:02:46.914Z</time>
      </trkpt>
      <trkpt lat="41.99963" lon="19.52524">
        <ele>50.660726</ele>
        <time>2022-05-15T11:03:47.903Z</time>
      </trkpt>
      <trkpt lat="42.00179" lon="19.52416">
        <ele>49.502778</ele>
        <time>2022-05-15T11:04:39.910Z</time>
      </trkpt>
      <trkpt lat="42.00425" lon="19.52319">
        <ele>48.464545</ele>
        <time>2022-05-15T11:05:37.932Z</time>
      </trkpt>
      <trkpt lat="42.00687" lon="19.52231">
        <ele>47.42074</ele>
        <time>2022-05-15T11:06:39.931Z</time>
      </trkpt>
      <trkpt lat="42.00902" lon="19.52066">
        <ele>47.737659</ele>
        <time>2022-05-15T11:07:37.943Z</time>
      </trkpt>
      <trkpt lat="42.0109" lon="19.51836">
        <ele>49.419057</ele>
        <time>2022-05-15T11:08:35.939Z</time>
      </trkpt>
      <trkpt lat="42.01298" lon="19.51691">
        <ele>49.996253</ele>
        <time>2022-05-15T11:09:38.960Z</time>
      </trkpt>
      <trkpt lat="42.01535" lon="19.51672">
        <ele>53.050995</ele>
        <time>2022-05-15T11:10:59.932Z</time>
      </trkpt>
      <trkpt lat="42.01791" lon="19.51692">
        <ele>57.139612</ele>
        <time>2022-05-15T11:12:06.945Z</time>
      </trkpt>
      <trkpt lat="42.02041" lon="19.51769">
        <ele>52.559106</ele>
        <time>2022-05-15T11:12:55.950Z</time>
      </trkpt>
      <trkpt lat="42.02262" lon="19.51824">
        <ele>50.115084</ele>
        <time>2022-05-15T11:13:44.941Z</time>
      </trkpt>
      <trkpt lat="42.02513" lon="19.51884">
        <ele>51.931198</ele>
        <time>2022-05-15T11:14:50.936Z</time>
      </trkpt>
      <trkpt lat="42.02661" lon="19.5168">
        <ele>50.196067</ele>
        <time>2022-05-15T11:15:39.944Z</time>
      </trkpt>
      <trkpt lat="42.02768" lon="19.51422">
        <ele>49.500257</ele>
        <time>2022-05-15T11:16:27.943Z</time>
      </trkpt>
      <trkpt lat="42.02919" lon="19.51187">
        <ele>51.14138</ele>
        <time>2022-05-15T11:17:19.951Z</time>
      </trkpt>
      <trkpt lat="42.03082" lon="19.50909">
        <ele>49.147057</ele>
        <time>2022-05-15T11:18:20.939Z</time>
      </trkpt>
      <trkpt lat="42.03154" lon="19.50623">
        <ele>48.332</ele>
        <time>2022-05-15T11:19:10.941Z</time>
      </trkpt>
      <trkpt lat="42.03193" lon="19.50348">
        <ele>47.40361</ele>
        <time>2022-05-15T11:19:53.932Z</time>
      </trkpt>
      <trkpt lat="42.03392" lon="19.50149">
        <ele>52.644758</ele>
        <time>2022-05-15T11:20:48.965Z</time>
      </trkpt>
      <trkpt lat="42.03589" lon="19.49973">
        <ele>54.711419</ele>
        <time>2022-05-15T11:21:41.938Z</time>
      </trkpt>
      <trkpt lat="42.03809" lon="19.49756">
        <ele>51.624817</ele>
        <time>2022-05-15T11:22:45.961Z</time>
      </trkpt>
      <trkpt lat="42.03981" lon="19.49549">
        <ele>51.327107</ele>
        <time>2022-05-15T11:23:37.966Z</time>
      </trkpt>
      <trkpt lat="42.04158" lon="19.4932">
        <ele>50.068434</ele>
        <time>2022-05-15T11:24:37.942Z</time>
      </trkpt>
      <trkpt lat="42.04325" lon="19.49123">
        <ele>51.733099</ele>
        <time>2022-05-15T11:25:42.978Z</time>
      </trkpt>
      <trkpt lat="42.04397" lon="19.49361">
        <ele>53.642997</ele>
        <time>2022-05-15T11:26:51.925Z</time>
      </trkpt>
      <trkpt lat="42.04524" lon="19.49602">
        <ele>51.564341</ele>
        <time>2022-05-15T11:27:59.909Z</time>
      </trkpt>
      <trkpt lat="42.04696" lon="19.49801">
        <ele>48.894691</ele>
        <time>2022-05-15T11:29:11.914Z</time>
      </trkpt>
      <trkpt lat="42.0474" lon="19.49884">
        <ele>56.979986</ele>
        <time>2022-05-15T11:49:59.934Z</time>
      </trkpt>
      <trkpt lat="42.04846" lon="19.49638">
        <ele>67.15912</ele>
        <time>2022-05-15T11:52:30.927Z</time>
      </trkpt>
      <trkpt lat="42.05054" lon="19.49526">
        <ele>51.410073</ele>
        <time>2022-05-15T11:53:30.005Z</time>
      </trkpt>
      <trkpt lat="42.05264" lon="19.49662">
        <ele>45.173701</ele>
        <time>2022-05-15T11:54:29.915Z</time>
      </trkpt>
      <trkpt lat="42.05419" lon="19.49901">
        <ele>43.545068</ele>
        <time>2022-05-15T11:55:33.962Z</time>
      </trkpt>
      <trkpt lat="42.05628" lon="19.50068">
        <ele>59.060614</ele>
        <time>2022-05-15T11:56:40.953Z</time>
      </trkpt>
      <trkpt lat="42.05805" lon="19.50251">
        <ele>61.280033</ele>
        <time>2022-05-15T11:57:32.934Z</time>
      </trkpt>
      <trkpt lat="42.06012" lon="19.50427">
        <ele>53.797725</ele>
        <time>2022-05-15T11:58:35.920Z</time>
      </trkpt>
      <trkpt lat="42.06219" lon="19.50611">
        <ele>55.435767</ele>
        <time>2022-05-15T11:59:41.915Z</time>
      </trkpt>
      <trkpt lat="42.0641" lon="19.50788">
        <ele>60.139302</ele>
        <time>2022-05-15T12:00:44.933Z</time>
      </trkpt>
      <trkpt lat="42.06602" lon="19.50993">
        <ele>54.568605</ele>
        <time>2022-05-15T12:01:50.951Z</time>
      </trkpt>
      <trkpt lat="42.06779" lon="19.51183">
        <ele>57.536818</ele>
        <time>2022-05-15T12:02:51.915Z</time>
      </trkpt>
      <trkpt lat="42.06716" lon="19.51101">
        <ele>55.39071</ele>
        <time>2022-05-15T12:05:31.988Z</time>
      </trkpt>
      <trkpt lat="42.06535" lon="19.50911">
        <ele>50.982333</ele>
        <time>2022-05-15T12:06:25.912Z</time>
      </trkpt>
      <trkpt lat="42.06439" lon="19.5085">
        <ele>50.776767</ele>
        <time>2022-05-15T12:11:32.873Z</time>
      </trkpt>
    </trkseg>
  </trk>
</gpx>